Accueil
METAR-TAF:

METAR-TAF

Aéroports :

Auckland, Nouvelle-Zélande

Aéroport d'Auckland

latitude: 37-01S, longitude: 174-48E, altitude: 7 m

Observation

Le bulletin a été fait il y a 27 minutes, à 22:00 UTC
Vent 15 kt de ouest/sud-ouest
Température 17°C
Humidité 72%
Pression 1011 hPa
Visibilité 10 km ou plus

METAR: NZAA 232200Z AUTO 25015KT 9999 SCT021/// BKN026/// BKN034/// 17/12 Q1011 NOSIG

Heure: 11:27 (22:27 UTC)

Prévision

Le bulletin a été fait il y a 5 heures et 25 minutes, à 17:02 UTC
Prévision valable du 23 à 18 UTC au 24 à 18 UTC
Vent 12 kt de ouest/sud-ouest
Visibilité 10 km ou plus
Nuages épars à une hauteur de 4000 ft
faibles averses de pluie

TAF: NZAA 231702Z 2318/2418 25012KT 9999 -SHRA SCT040

Observations et prévisions météorologiques de plus de 4000 aéroports (messages METAR et TAF).

Les stations disponibles sont représentées par des disques jaunes et rouges sur la carte.

Passer la souris dessus pour voir le nom de la station.

Cliquer dessus pour voir les observations et prévisions météorologiques.

Pour changer de carte: cliquez sur les boutons verts avec une croix noire pour zoomer, sur le bouton vert avec un tiret pour effectuer un zoom arrière, ou sur les flèches vertes pour les cartes adjacentes.


METAR-TAF: